Messwerte Aurora

Temperatur

Temperatur
°C
1575979200 4.00 4.00 6
1575982800 5.00 5.00 6
1575986400 6.00 6.00 6
1575990000 7.00 7.00 6
1575993600 8.00 8.00 6
1575997200 9.00 9.00 6
1576000800 10.00 10.00 7
1576004400 11.00 11.00 7
1576008000 12.00 12.00
1576011600 13.00 13.00 7
1576015200 14.00 14.00 7
1576018800 15.00 15.00 7
1576022400 16.00 16.00 7
1576026000 17.00 17.00 7
1576029600 18.00 18.00 7
1576033200 19.00 19.00
1576036800 20.00 20.00 7
1576040400 21.00 21.00 7
1576044000 22.00 22.00 7
1576047600 23.00 23.00 7
1576051200 0.00 0.00 7
1576054800 1.00 1.00 7
1576058400 2.00 2.00 7
1576062000 3.00 3.00 7

Aktuellste Messwerte

Wettercharakter
Wetter: Nebel
Temperatur
7 °C
Feuchtigkeit
93 %
Wind
5 km/hWindrichtung: Nordost
Luftdruck
1019 hPa
Messzeit: 11. Dezember 2019, 3.00Datenquelle: METAR

Weitere Messstationen in der Nähe

Messstation Temperatur Entfernung
McMinnville 7 °C 29 km
Portland 7 °C 35 km
Portland 6 °C 41 km
Salem 7 °C 42 km
Vancouver 6 °C 42 km
Portland 6 °C 44 km
Scappoose 6 °C 58 km

Wind

Windrichtung Böen Mittelwind
° km/h km/h
1575979200 4.00 3.00 - 4.00 0
1575982800 5.00 4.00 - 5.00 150° 5
1575986400 6.00 5.00 - 6.00 150° 5
1575990000 7.00 6.00 - 7.00 140° 5
1575993600 8.00 7.00 - 8.00 160° 5
1575997200 9.00 8.00 - 9.00 0
1576000800 10.00 9.00 - 10.00 0
1576004400 11.00 10.00 - 11.00 0
1576008000 12.00 11.00 - 12.00
1576011600 13.00 12.00 - 13.00 140° 10
1576015200 14.00 13.00 - 14.00 150° 10
1576018800 15.00 14.00 - 15.00 80° 5
1576022400 16.00 15.00 - 16.00 0
1576026000 17.00 16.00 - 17.00 0
1576029600 18.00 17.00 - 18.00 0
1576033200 19.00 18.00 - 19.00
1576036800 20.00 19.00 - 20.00 70° 5
1576040400 21.00 20.00 - 21.00 0
1576044000 22.00 21.00 - 22.00 80° 0
1576047600 23.00 22.00 - 23.00 0
1576051200 0.00 23.00 - 0.00 80° 5
1576054800 1.00 0.00 - 1.00 0
1576058400 2.00 1.00 - 2.00 0
1576062000 3.00 2.00 - 3.00 40° 5

Ihre Wetterstation

Fehlt Ihre Wetterstation auf unserem Portal?

Schreiben Sie an network@meteonews.ch

Klima

Wann ist es am wärmsten? Wann regnet es am wenigsten? Unsere Klimadaten geben Auskunft.